Time;durP1;ratioP1;P1;durP2;ratioP2;P2;SDS_P1;SDS_P2;PMS_P1;PMS_P2;Temp;Humidity;BMP_temperature;BMP_pressure;BME280_temperature;BME280_humidity;BME280_pressure;Samples;Min_cycle;Max_cycle;Signal;HPM_P1;HPM_P2
2021/04/08 00:00:26;;;;;;;2.45;1.50;;;;;;;;;;6120484;29;20087;-68
2021/04/08 00:03:27;;;;;;;3.80;1.45;;;;;;;;;;6125230;29;20137;-67
2021/04/08 00:06:28;;;;;;;6.85;1.38;;;;;;;;;;6117177;29;20075;-70
2021/04/08 00:09:30;;;;;;;2.58;1.23;;;;;;;;;;6114514;29;20086;-68
2021/04/08 00:12:31;;;;;;;7.97;2.40;;;;;;;;;;6111975;29;20079;-69
2021/04/08 00:15:33;;;;;;;2.28;1.40;;;;;;;;;;6118232;29;20134;-69
2021/04/08 00:18:34;;;;;;;3.15;1.08;;;;;;;;;;6114309;29;20138;-68
2021/04/08 00:21:35;;;;;;;3.08;1.10;;;;;;;;;;6112265;29;20171;-69
2021/04/08 00:24:36;;;;;;;2.83;1.30;;;;;;;;;;6109312;29;20071;-68
2021/04/08 00:27:38;;;;;;;1.73;1.05;;;;;;;;;;6111658;29;20146;-69
2021/04/08 00:30:43;;;;;;;3.03;1.20;;;;;;;;;;6105769;29;20069;-68
2021/04/08 00:33:44;;;;;;;2.83;1.30;;;;;;;;;;6103531;29;20530;-69
2021/04/08 00:36:45;;;;;;;2.65;1.20;;;;;;;;;;6108833;29;20158;-69
2021/04/08 00:39:46;;;;;;;2.65;1.20;;;;;;;;;;6113364;29;20726;-68
2021/04/08 00:42:48;;;;;;;1.98;1.23;;;;;;;;;;6114514;29;20146;-69
2021/04/08 00:45:49;;;;;;;2.28;1.10;;;;;;;;;;6123787;29;20534;-69
2021/04/08 00:48:50;;;;;;;2.05;1.38;;;;;;;;;;6121093;29;20071;-69
2021/04/08 00:51:52;;;;;;;2.72;1.42;;;;;;;;;;6123515;29;20139;-69
2021/04/08 00:54:54;;;;;;;2.80;1.10;;;;;;;;;;6124276;29;20402;-69
2021/04/08 00:57:56;;;;;;;2.50;1.40;;;;;;;;;;6118603;29;20130;-69
2021/04/08 01:00:58;;;;;;;5.13;1.60;;;;;;;;;;6110923;29;20135;-69
2021/04/08 01:03:59;;;;;;;2.75;1.52;;;;;;;;;;6126633;23;20054;-74
2021/04/08 01:07:00;;;;;;;5.40;1.77;;;;;;;;;;6126747;29;20139;-74
2021/04/08 01:10:01;;;;;;;4.13;1.40;;;;;;;;;;6126737;29;20050;-73
2021/04/08 01:13:06;;;;;;;4.68;1.65;;;;;;;;;;6126560;29;20048;-74
2021/04/08 01:16:10;;;;;;;1.98;1.15;;;;;;;;;;6125934;29;20044;-73
2021/04/08 01:19:46;;;;;;;3.30;1.33;;;;;;;;;;6122257;29;20090;-74
2021/04/08 01:23:05;;;;;;;4.25;1.55;;;;;;;;;;6074898;29;20498;-74
2021/04/08 01:26:16;;;;;;;3.78;1.80;;;;;;;;;;6117965;29;20051;-73
2021/04/08 01:29:29;;;;;;;6.13;2.17;;;;;;;;;;6122686;29;20059;-78
2021/04/08 01:32:33;;;;;;;4.05;1.60;;;;;;;;;;6112100;29;20052;-71
2021/04/08 01:35:35;;;;;;;7.75;1.85;;;;;;;;;;6118555;29;20081;-75
2021/04/08 01:38:39;;;;;;;3.65;1.73;;;;;;;;;;6111656;29;20044;-74
2021/04/08 01:41:43;;;;;;;5.80;1.92;;;;;;;;;;6119877;29;20504;-74
2021/04/08 01:44:45;;;;;;;3.53;1.73;;;;;;;;;;6116099;29;20138;-74
2021/04/08 01:47:48;;;;;;;4.10;1.95;;;;;;;;;;6116134;29;20096;-74
2021/04/08 01:50:54;;;;;;;3.42;1.73;;;;;;;;;;6116046;29;20067;-72
2021/04/08 01:53:59;;;;;;;3.25;1.70;;;;;;;;;;6119133;29;20182;-75
2021/04/08 01:57:03;;;;;;;2.88;1.55;;;;;;;;;;6114354;29;20641;-76
2021/04/08 02:00:06;;;;;;;3.15;1.70;;;;;;;;;;6115046;29;20167;-75
2021/04/08 02:03:08;;;;;;;3.80;1.87;;;;;;;;;;6116990;29;20130;-75
2021/04/08 02:06:11;;;;;;;3.35;1.90;;;;;;;;;;6109648;29;20048;-75
2021/04/08 02:09:12;;;;;;;5.60;1.90;;;;;;;;;;6114003;29;20068;-75
2021/04/08 02:12:14;;;;;;;4.20;1.90;;;;;;;;;;6113236;29;20768;-74
2021/04/08 02:15:18;;;;;;;4.32;1.58;;;;;;;;;;6116547;29;20624;-74
2021/04/08 02:18:21;;;;;;;5.03;1.40;;;;;;;;;;6113493;29;20131;-74
2021/04/08 02:21:23;;;;;;;2.90;1.20;;;;;;;;;;6120186;29;20193;-74
2021/04/08 02:24:24;;;;;;;1.70;1.08;;;;;;;;;;6106249;29;20567;-73
2021/04/08 02:27:27;;;;;;;4.32;1.40;;;;;;;;;;6105838;29;20189;-74
2021/04/08 02:30:28;;;;;;;4.38;1.65;;;;;;;;;;6106282;29;20123;-75
2021/04/08 02:33:31;;;;;;;4.75;1.55;;;;;;;;;;6094531;29;20083;-74
2021/04/08 02:36:32;;;;;;;2.60;1.48;;;;;;;;;;6086381;29;20531;-75
2021/04/08 02:39:33;;;;;;;3.33;1.40;;;;;;;;;;6087175;29;20633;-74
2021/04/08 02:42:34;;;;;;;2.65;1.40;;;;;;;;;;6089565;29;20087;-74
2021/04/08 02:45:35;;;;;;;2.70;1.17;;;;;;;;;;6092530;29;20083;-75
2021/04/08 02:48:37;;;;;;;4.68;1.40;;;;;;;;;;6101261;29;20091;-74
2021/04/08 02:51:44;;;;;;;2.28;1.15;;;;;;;;;;6089512;29;20135;-75
2021/04/08 02:54:48;;;;;;;4.03;1.00;;;;;;;;;;6097995;29;20559;-75
2021/04/08 02:57:54;;;;;;;2.33;1.20;;;;;;;;;;6104051;29;20140;-74
2021/04/08 03:00:59;;;;;;;1.98;0.90;;;;;;;;;;6092618;29;20404;-74
2021/04/08 03:04:02;;;;;;;1.50;1.00;;;;;;;;;;6098394;29;20147;-74
2021/04/08 03:07:04;;;;;;;2.65;1.00;;;;;;;;;;6112064;29;20044;-74
2021/04/08 03:10:07;;;;;;;2.47;1.02;;;;;;;;;;6090017;29;20135;-75
2021/04/08 03:13:10;;;;;;;1.40;0.93;;;;;;;;;;6086980;29;20104;-75
2021/04/08 03:16:18;;;;;;;2.70;0.95;;;;;;;;;;6081514;29;20139;-75
2021/04/08 03:19:24;;;;;;;3.38;1.40;;;;;;;;;;6085912;29;20142;-75
2021/04/08 03:22:25;;;;;;;5.30;1.30;;;;;;;;;;6115555;29;20056;-75
2021/04/08 03:25:27;;;;;;;3.63;1.10;;;;;;;;;;6094073;29;20157;-74
2021/04/08 03:28:29;;;;;;;1.50;1.00;;;;;;;;;;6084023;29;20163;-74
2021/04/08 03:31:31;;;;;;;1.50;0.70;;;;;;;;;;6084464;29;20060;-75
2021/04/08 03:34:33;;;;;;;1.60;0.80;;;;;;;;;;6093474;29;20142;-74
2021/04/08 03:37:35;;;;;;;4.80;1.30;;;;;;;;;;6112426;29;20064;-75
2021/04/08 03:40:37;;;;;;;4.35;1.20;;;;;;;;;;6107045;29;20138;-75
2021/04/08 03:43:38;;;;;;;1.27;0.82;;;;;;;;;;6109485;29;21002;-75
2021/04/08 03:46:41;;;;;;;3.28;0.90;;;;;;;;;;6117046;29;20565;-74
2021/04/08 03:49:43;;;;;;;2.03;1.00;;;;;;;;;;6120699;29;20075;-74
2021/04/08 03:52:45;;;;;;;2.65;0.88;;;;;;;;;;6111148;29;20155;-74
2021/04/08 03:55:47;;;;;;;3.33;1.00;;;;;;;;;;6109925;29;20079;-74
2021/04/08 03:58:48;;;;;;;2.83;1.10;;;;;;;;;;6094253;29;20048;-74
2021/04/08 04:01:49;;;;;;;1.95;0.90;;;;;;;;;;6084818;29;20159;-74
2021/04/08 04:04:52;;;;;;;3.25;1.10;;;;;;;;;;6081891;29;20153;-74
2021/04/08 04:07:53;;;;;;;3.25;1.00;;;;;;;;;;6081049;29;20130;-74
2021/04/08 04:10:54;;;;;;;3.25;1.00;;;;;;;;;;6083353;29;20139;-75
2021/04/08 04:13:56;;;;;;;1.85;0.98;;;;;;;;;;6085624;29;20075;-75
2021/04/08 04:16:58;;;;;;;2.40;1.20;;;;;;;;;;6094000;29;20045;-75
2021/04/08 04:20:00;;;;;;;5.60;1.00;;;;;;;;;;6081441;29;20136;-75
2021/04/08 04:23:02;;;;;;;2.67;0.73;;;;;;;;;;6082323;29;20110;-74
2021/04/08 04:26:03;;;;;;;3.08;0.90;;;;;;;;;;6087901;29;20068;-74
2021/04/08 04:29:04;;;;;;;3.95;1.10;;;;;;;;;;6083347;29;20627;-74
2021/04/08 04:32:08;;;;;;;3.50;0.98;;;;;;;;;;6081666;29;20060;-74
2021/04/08 04:35:11;;;;;;;2.72;0.88;;;;;;;;;;6102778;29;20071;-75
2021/04/08 04:38:12;;;;;;;2.35;1.00;;;;;;;;;;6107598;29;20147;-75
2021/04/08 04:41:13;;;;;;;2.33;1.40;;;;;;;;;;6108252;29;20134;-74
2021/04/08 04:44:14;;;;;;;5.60;1.10;;;;;;;;;;6082786;29;20525;-74
2021/04/08 04:47:15;;;;;;;2.63;1.30;;;;;;;;;;6090502;29;20131;-75
2021/04/08 04:50:17;;;;;;;6.55;1.23;;;;;;;;;;6081888;29;20177;-75
2021/04/08 04:53:18;;;;;;;5.30;1.30;;;;;;;;;;6085300;29;20072;-75
2021/04/08 04:56:19;;;;;;;9.05;1.60;;;;;;;;;;6094268;29;20099;-75
2021/04/08 04:59:21;;;;;;;3.97;1.40;;;;;;;;;;6100083;29;20080;-74
2021/04/08 05:02:22;;;;;;;1.63;1.00;;;;;;;;;;6100103;29;20055;-74
2021/04/08 05:05:24;;;;;;;2.92;1.35;;;;;;;;;;6088596;29;20769;-76
2021/04/08 05:08:25;;;;;;;4.13;1.25;;;;;;;;;;6116231;29;20510;-74
2021/04/08 05:11:27;;;;;;;4.85;1.58;;;;;;;;;;6111503;29;20075;-74
2021/04/08 05:14:28;;;;;;;4.00;1.20;;;;;;;;;;6121458;29;20060;-74
2021/04/08 05:17:29;;;;;;;9.35;1.20;;;;;;;;;;6123033;29;20131;-74
2021/04/08 05:20:31;;;;;;;2.80;1.25;;;;;;;;;;6123321;29;20554;-74
2021/04/08 05:23:32;;;;;;;3.85;1.45;;;;;;;;;;6122559;29;20064;-75
2021/04/08 05:26:33;;;;;;;3.28;1.40;;;;;;;;;;6115620;29;20112;-74
2021/04/08 05:29:34;;;;;;;3.33;1.30;;;;;;;;;;6113692;29;20534;-73
2021/04/08 05:32:35;;;;;;;9.05;1.45;;;;;;;;;;6113187;29;20071;-72
2021/04/08 05:35:38;;;;;;;9.80;2.65;;;;;;;;;;6117436;29;20078;-75
2021/04/08 05:38:39;;;;;;;6.93;1.95;;;;;;;;;;6121320;29;20079;-72
2021/04/08 05:41:40;;;;;;;6.10;1.80;;;;;;;;;;6120840;29;20079;-73
2021/04/08 05:44:41;;;;;;;11.70;2.05;;;;;;;;;;6117201;29;20075;-74
2021/04/08 05:47:42;;;;;;;15.07;1.95;;;;;;;;;;6121086;29;20058;-73
2021/04/08 05:50:44;;;;;;;8.73;2.47;;;;;;;;;;6118369;29;20799;-72
2021/04/08 05:53:45;;;;;;;4.47;1.90;;;;;;;;;;6126019;29;20126;-74
2021/04/08 05:56:46;;;;;;;2.25;1.63;;;;;;;;;;6116100;29;20075;-75
2021/04/08 05:59:47;;;;;;;3.55;2.00;;;;;;;;;;6121934;29;20059;-74
2021/04/08 06:02:48;;;;;;;6.07;1.90;;;;;;;;;;6121455;29;20499;-74
2021/04/08 06:05:50;;;;;;;5.78;1.80;;;;;;;;;;6121210;29;20126;-72
2021/04/08 06:08:51;;;;;;;5.28;2.60;;;;;;;;;;6111204;29;20189;-73
2021/04/08 06:11:53;;;;;;;4.90;2.05;;;;;;;;;;6118296;29;20088;-72
2021/04/08 06:14:54;;;;;;;5.90;2.08;;;;;;;;;;6121725;29;20071;-73
2021/04/08 06:17:55;;;;;;;4.05;1.83;;;;;;;;;;6117699;29;20071;-73
2021/04/08 06:20:57;;;;;;;7.57;1.98;;;;;;;;;;6109670;29;20047;-75
2021/04/08 06:23:58;;;;;;;3.22;1.90;;;;;;;;;;6105289;29;20056;-75
2021/04/08 06:26:59;;;;;;;9.85;2.10;;;;;;;;;;6111968;29;20155;-73
2021/04/08 06:30:00;;;;;;;4.88;1.92;;;;;;;;;;6107480;29;20804;-72
2021/04/08 06:33:01;;;;;;;5.10;2.60;;;;;;;;;;6110516;29;20127;-72
2021/04/08 06:36:04;;;;;;;15.25;2.90;;;;;;;;;;6103768;29;20056;-73
2021/04/08 06:39:06;;;;;;;5.10;2.10;;;;;;;;;;6112356;29;20143;-74
2021/04/08 06:42:08;;;;;;;3.10;2.10;;;;;;;;;;6112521;29;20126;-73
2021/04/08 06:45:10;;;;;;;6.22;2.33;;;;;;;;;;6117873;29;20638;-74
2021/04/08 06:48:16;;;;;;;5.00;2.35;;;;;;;;;;6115233;29;20091;-75
2021/04/08 06:51:20;;;;;;;6.18;2.28;;;;;;;;;;6119294;29;20138;-76
2021/04/08 06:54:21;;;;;;;8.73;2.33;;;;;;;;;;6116902;29;20043;-74
2021/04/08 06:57:23;;;;;;;9.32;2.50;;;;;;;;;;6113804;29;20062;-76
2021/04/08 07:00:24;;;;;;;5.47;2.53;;;;;;;;;;6111261;29;20135;-75
2021/04/08 07:03:26;;;;;;;5.50;2.28;;;;;;;;;;6110902;29;20087;-75
2021/04/08 07:06:28;;;;;;;7.18;2.17;;;;;;;;;;6114351;29;20071;-78
2021/04/08 07:09:29;;;;;;;6.38;3.25;;;;;;;;;;6113741;29;20479;-77
2021/04/08 07:12:30;;;;;;;5.80;2.28;;;;;;;;;;6116292;29;20112;-76
2021/04/08 07:15:32;;;;;;;9.10;2.60;;;;;;;;;;6117963;29;20190;-76
2021/04/08 07:18:33;;;;;;;8.80;3.03;;;;;;;;;;6120205;29;20079;-77
2021/04/08 07:21:36;;;;;;;9.40;2.78;;;;;;;;;;6116711;29;20103;-77
2021/04/08 07:24:42;;;;;;;6.43;2.33;;;;;;;;;;6115162;29;20059;-75
2021/04/08 07:27:43;;;;;;;10.00;2.55;;;;;;;;;;6115992;29;20056;-76
2021/04/08 07:30:47;;;;;;;8.20;2.30;;;;;;;;;;6114805;29;20082;-76
2021/04/08 07:33:49;;;;;;;4.25;2.40;;;;;;;;;;6118486;29;20131;-76
2021/04/08 07:36:54;;;;;;;4.53;2.40;;;;;;;;;;6118223;29;20039;-76
2021/04/08 07:39:56;;;;;;;5.40;2.85;;;;;;;;;;6113535;29;20079;-76
2021/04/08 07:42:57;;;;;;;6.88;2.58;;;;;;;;;;6116630;29;20123;-76
2021/04/08 07:46:00;;;;;;;8.57;2.70;;;;;;;;;;6113378;29;20059;-77
2021/04/08 07:49:01;;;;;;;5.47;2.13;;;;;;;;;;6117852;29;20111;-77
2021/04/08 07:52:17;;;;;;;5.72;2.40;;;;;;;;;;6114077;29;20746;-75
2021/04/08 07:55:19;;;;;;;9.05;2.20;;;;;;;;;;6111747;29;20071;-76
2021/04/08 07:58:20;;;;;;;4.55;2.10;;;;;;;;;;6106995;29;20040;-76
2021/04/08 08:01:22;;;;;;;5.00;2.22;;;;;;;;;;6111252;29;20518;-76
2021/04/08 08:04:24;;;;;;;8.98;2.40;;;;;;;;;;6113625;29;20044;-77
2021/04/08 08:07:27;;;;;;;4.55;2.47;;;;;;;;;;6115003;29;20048;-77
2021/04/08 08:10:28;;;;;;;6.43;2.88;;;;;;;;;;6104531;29;20131;-77
2021/04/08 08:13:32;;;;;;;5.78;2.10;;;;;;;;;;6108892;29;20105;-76
2021/04/08 08:16:33;;;;;;;7.55;2.53;;;;;;;;;;6119199;28;20070;-76
2021/04/08 08:19:35;;;;;;;5.18;1.85;;;;;;;;;;6114780;29;20143;-76
2021/04/08 08:22:39;;;;;;;3.05;1.75;;;;;;;;;;6107872;29;20079;-76
2021/04/08 08:25:40;;;;;;;12.18;2.03;;;;;;;;;;6108625;29;20128;-76
2021/04/08 08:28:41;;;;;;;4.07;1.83;;;;;;;;;;6107689;29;20071;-76
2021/04/08 08:31:45;;;;;;;2.97;1.80;;;;;;;;;;6113661;29;20101;-74
2021/04/08 08:34:46;;;;;;;5.32;1.70;;;;;;;;;;6115206;29;20537;-74
2021/04/08 08:37:48;;;;;;;2.75;1.75;;;;;;;;;;6114135;29;20519;-76
2021/04/08 08:40:50;;;;;;;2.72;1.77;;;;;;;;;;6112423;29;20145;-74
2021/04/08 08:43:51;;;;;;;3.50;1.80;;;;;;;;;;6118128;29;20455;-74
2021/04/08 08:46:54;;;;;;;4.68;1.92;;;;;;;;;;6120073;29;20135;-74
2021/04/08 08:49:58;;;;;;;4.05;2.03;;;;;;;;;;6121461;29;20907;-74
2021/04/08 08:53:01;;;;;;;8.00;2.33;;;;;;;;;;6113662;29;20075;-76
2021/04/08 08:56:03;;;;;;;5.47;2.30;;;;;;;;;;6113675;29;20619;-76
2021/04/08 08:59:04;;;;;;;6.97;2.15;;;;;;;;;;6124603;29;20036;-76
2021/04/08 09:02:09;;;;;;;7.50;2.50;;;;;;;;;;6112556;29;20090;-76
2021/04/08 09:05:13;;;;;;;4.70;2.05;;;;;;;;;;6108051;29;20091;-77
2021/04/08 09:08:17;;;;;;;4.32;2.30;;;;;;;;;;6110345;29;20107;-76
2021/04/08 09:11:23;;;;;;;4.20;2.15;;;;;;;;;;6116503;29;20054;-77
2021/04/08 09:14:24;;;;;;;5.43;2.22;;;;;;;;;;6118174;29;20071;-76
2021/04/08 09:17:41;;;;;;;4.03;2.70;;;;;;;;;;6113733;29;20491;-76
2021/04/08 09:20:42;;;;;;;6.00;2.25;;;;;;;;;;6114411;29;20634;-76
2021/04/08 09:23:44;;;;;;;4.60;2.30;;;;;;;;;;6116566;29;20200;-76
2021/04/08 09:26:48;;;;;;;5.43;2.83;;;;;;;;;;6113075;29;20142;-76
2021/04/08 09:29:55;;;;;;;4.45;3.00;;;;;;;;;;6118495;29;20067;-76
2021/04/08 09:32:57;;;;;;;5.30;2.70;;;;;;;;;;6115461;29;20122;-77
2021/04/08 09:35:58;;;;;;;5.20;2.50;;;;;;;;;;6110987;29;20476;-77
2021/04/08 09:39:27;;;;;;;5.32;2.72;;;;;;;;;;6118749;29;20443;-77
2021/04/08 09:42:29;;;;;;;7.50;2.97;;;;;;;;;;6088573;29;20060;-76
2021/04/08 09:45:31;;;;;;;5.05;2.70;;;;;;;;;;6123794;29;20126;-77
2021/04/08 09:48:50;;;;;;;4.32;2.63;;;;;;;;;;6115235;29;20146;-76
2021/04/08 09:51:59;;;;;;;5.45;3.17;;;;;;;;;;6118546;29;20055;-76
2021/04/08 09:55:01;;;;;;;8.00;3.90;;;;;;;;;;6121324;29;20698;-75
2021/04/08 09:58:04;;;;;;;8.00;3.70;;;;;;;;;;6115357;29;20131;-76
2021/04/08 10:01:06;;;;;;;5.55;3.15;;;;;;;;;;6112278;29;20797;-76
2021/04/08 10:04:12;;;;;;;6.63;3.70;;;;;;;;;;6116437;29;20191;-76
2021/04/08 10:07:13;;;;;;;5.05;3.03;;;;;;;;;;6113607;29;20130;-75
2021/04/08 10:10:15;;;;;;;5.82;2.97;;;;;;;;;;6112966;29;20075;-77
2021/04/08 10:13:22;;;;;;;8.45;3.45;;;;;;;;;;6112193;29;20139;-77
2021/04/08 10:16:24;;;;;;;7.03;3.28;;;;;;;;;;6111987;29;20130;-77
2021/04/08 10:19:29;;;;;;;10.40;3.03;;;;;;;;;;6110487;29;20138;-75
2021/04/08 10:22:39;;;;;;;6.28;3.00;;;;;;;;;;6114025;29;20083;-74
2021/04/08 10:25:41;;;;;;;6.32;3.05;;;;;;;;;;6118827;29;20051;-77
2021/04/08 10:28:43;;;;;;;6.93;2.90;;;;;;;;;;6110585;29;20138;-77
2021/04/08 10:31:45;;;;;;;8.18;3.10;;;;;;;;;;6112582;29;20143;-77
2021/04/08 10:34:46;;;;;;;7.65;2.97;;;;;;;;;;6114328;29;20466;-77
2021/04/08 10:37:57;;;;;;;11.55;2.80;;;;;;;;;;6116846;29;20518;-75
2021/04/08 10:41:00;;;;;;;10.38;2.80;;;;;;;;;;6117142;29;20142;-74
2021/04/08 10:44:21;;;;;;;8.40;3.08;;;;;;;;;;6111944;29;20692;-75
2021/04/08 10:47:23;;;;;;;7.05;2.95;;;;;;;;;;6112092;29;20110;-74
2021/04/08 10:50:25;;;;;;;33.80;4.38;;;;;;;;;;6116859;29;20539;-76
2021/04/08 10:53:26;;;;;;;7.53;2.90;;;;;;;;;;6116878;29;20096;-78
2021/04/08 10:56:28;;;;;;;6.97;2.90;;;;;;;;;;6117945;29;20635;-76
2021/04/08 10:59:30;;;;;;;6.85;2.70;;;;;;;;;;6117202;29;20086;-75
2021/04/08 11:02:33;;;;;;;7.70;2.70;;;;;;;;;;6116108;29;20064;-76
2021/04/08 11:05:35;;;;;;;5.00;2.73;;;;;;;;;;6113987;29;20193;-75
2021/04/08 11:08:36;;;;;;;8.70;3.30;;;;;;;;;;6117638;29;20452;-75
2021/04/08 11:11:38;;;;;;;8.52;3.40;;;;;;;;;;6119823;29;20090;-76
2021/04/08 11:14:44;;;;;;;7.90;2.92;;;;;;;;;;6117724;29;20234;-74
2021/04/08 11:17:48;;;;;;;7.57;2.85;;;;;;;;;;6117168;29;20130;-72
2021/04/08 11:20:52;;;;;;;5.95;3.03;;;;;;;;;;6115071;29;20825;-72
2021/04/08 11:23:54;;;;;;;5.80;3.00;;;;;;;;;;6114364;29;20051;-73
2021/04/08 11:26:56;;;;;;;4.93;2.70;;;;;;;;;;6114413;29;20621;-73
2021/04/08 11:29:57;;;;;;;9.50;2.92;;;;;;;;;;6112917;29;20043;-73
2021/04/08 11:33:00;;;;;;;6.82;2.75;;;;;;;;;;6116352;29;20183;-73
2021/04/08 11:36:01;;;;;;;7.97;3.28;;;;;;;;;;6114113;29;20075;-74
2021/04/08 11:39:09;;;;;;;11.63;3.78;;;;;;;;;;6114646;29;20083;-73
2021/04/08 11:42:32;;;;;;;9.25;2.80;;;;;;;;;;6115515;29;20088;-74
2021/04/08 11:45:34;;;;;;;7.05;2.95;;;;;;;;;;6117512;29;20048;-77
2021/04/08 11:48:41;;;;;;;8.48;3.03;;;;;;;;;;6116150;29;20247;-76
2021/04/08 11:51:43;;;;;;;5.28;2.70;;;;;;;;;;6113450;29;20071;-75
2021/04/08 11:54:58;;;;;;;4.22;2.60;;;;;;;;;;6117270;29;20143;-72
2021/04/08 11:58:00;;;;;;;5.00;2.50;;;;;;;;;;6116822;29;20130;-76
2021/04/08 12:01:08;;;;;;;6.85;2.80;;;;;;;;;;6114555;29;20064;-75
2021/04/08 12:04:14;;;;;;;6.63;2.83;;;;;;;;;;6116327;29;20079;-79
2021/04/08 12:07:15;;;;;;;8.48;2.50;;;;;;;;;;6113411;29;20066;-79
2021/04/08 12:10:25;;;;;;;6.03;2.67;;;;;;;;;;6114069;29;20071;-79
2021/04/08 12:13:27;;;;;;;5.35;2.70;;;;;;;;;;6119547;29;20071;-79
2021/04/08 12:16:28;;;;;;;9.27;3.28;;;;;;;;;;6115641;29;20092;-79
2021/04/08 12:19:29;;;;;;;9.10;3.17;;;;;;;;;;6113748;29;20044;-79
2021/04/08 12:22:30;;;;;;;6.53;3.10;;;;;;;;;;6116217;29;20756;-78
2021/04/08 12:25:40;;;;;;;9.05;2.67;;;;;;;;;;6116329;29;20055;-79
2021/04/08 12:28:42;;;;;;;5.72;2.80;;;;;;;;;;6118465;29;20107;-78
2021/04/08 12:31:47;;;;;;;9.13;3.00;;;;;;;;;;6113795;29;20051;-79
2021/04/08 12:34:48;;;;;;;6.57;3.05;;;;;;;;;;6117939;29;20545;-79
2021/04/08 12:37:50;;;;;;;4.72;2.90;;;;;;;;;;6116690;29;20500;-79
2021/04/08 12:40:52;;;;;;;5.47;3.10;;;;;;;;;;6115931;29;20047;-79
2021/04/08 12:43:54;;;;;;;4.32;2.40;;;;;;;;;;6116279;29;20802;-78
2021/04/08 12:46:55;;;;;;;5.47;2.45;;;;;;;;;;6117092;29;20055;-77
2021/04/08 12:49:56;;;;;;;7.15;2.25;;;;;;;;;;6114337;29;20096;-79
2021/04/08 12:52:58;;;;;;;7.47;2.80;;;;;;;;;;6114755;29;20138;-77
2021/04/08 12:55:59;;;;;;;4.65;2.70;;;;;;;;;;6116919;29;20483;-78
2021/04/08 12:59:02;;;;;;;3.67;1.90;;;;;;;;;;6118954;29;20055;-77
2021/04/08 13:02:03;;;;;;;6.47;2.60;;;;;;;;;;6115754;29;20043;-76
2021/04/08 13:05:05;;;;;;;9.43;2.42;;;;;;;;;;6111967;29;20505;-75
2021/04/08 13:08:07;;;;;;;8.02;2.10;;;;;;;;;;6117311;29;20139;-76
2021/04/08 13:11:08;;;;;;;11.80;2.50;;;;;;;;;;6115385;29;20063;-78
2021/04/08 13:14:10;;;;;;;5.78;2.95;;;;;;;;;;6117920;29;20537;-78
2021/04/08 13:17:12;;;;;;;7.20;2.55;;;;;;;;;;6118333;29;20078;-77
2021/04/08 13:20:14;;;;;;;6.10;2.33;;;;;;;;;;6120786;29;20082;-79
2021/04/08 13:23:15;;;;;;;6.82;2.20;;;;;;;;;;6120022;29;20107;-77
2021/04/08 13:26:17;;;;;;;12.43;2.25;;;;;;;;;;6121811;29;20827;-77
2021/04/08 13:29:19;;;;;;;6.07;2.95;;;;;;;;;;6121080;29;20051;-76
2021/04/08 13:32:20;;;;;;;6.38;2.33;;;;;;;;;;6114849;29;20183;-77
2021/04/08 13:35:22;;;;;;;7.65;2.50;;;;;;;;;;6116492;29;20435;-76
2021/04/08 13:38:23;;;;;;;7.43;2.30;;;;;;;;;;6115493;29;20415;-77
2021/04/08 13:41:24;;;;;;;7.85;2.65;;;;;;;;;;6114147;29;20730;-76
2021/04/08 13:44:26;;;;;;;5.72;2.60;;;;;;;;;;6120289;29;20051;-77
2021/04/08 13:47:27;;;;;;;9.50;3.08;;;;;;;;;;6122571;29;20067;-77
2021/04/08 13:50:28;;;;;;;4.78;2.83;;;;;;;;;;6120778;29;20507;-77
2021/04/08 13:53:31;;;;;;;8.90;3.00;;;;;;;;;;6116512;29;20466;-78
2021/04/08 13:56:32;;;;;;;7.88;2.72;;;;;;;;;;6114263;29;20079;-77
2021/04/08 13:59:34;;;;;;;7.95;2.60;;;;;;;;;;6116141;29;20079;-78
2021/04/08 14:02:36;;;;;;;8.18;2.58;;;;;;;;;;6113372;29;20744;-78
2021/04/08 14:05:37;;;;;;;4.93;2.60;;;;;;;;;;6120028;29;20071;-78
2021/04/08 14:08:38;;;;;;;9.00;2.80;;;;;;;;;;6121865;29;20134;-75
2021/04/08 14:11:42;;;;;;;6.95;2.95;;;;;;;;;;6115312;29;20090;-76
2021/04/08 14:14:44;;;;;;;7.20;2.70;;;;;;;;;;6111543;29;20076;-77
2021/04/08 14:17:45;;;;;;;11.70;2.78;;;;;;;;;;6112623;29;20075;-76
2021/04/08 14:20:46;;;;;;;8.85;2.25;;;;;;;;;;6112656;29;20071;-76
2021/04/08 14:23:49;;;;;;;14.43;3.25;;;;;;;;;;6113574;29;20059;-77
2021/04/08 14:26:50;;;;;;;8.63;2.40;;;;;;;;;;6121728;29;20103;-77
2021/04/08 14:29:52;;;;;;;8.98;3.03;;;;;;;;;;6115295;29;20063;-77
2021/04/08 14:32:53;;;;;;;11.95;2.67;;;;;;;;;;6115302;29;20420;-78
2021/04/08 14:35:54;;;;;;;18.65;3.42;;;;;;;;;;6115400;29;20130;-77
2021/04/08 14:38:56;;;;;;;8.93;3.20;;;;;;;;;;6121559;29;20694;-78
2021/04/08 14:41:57;;;;;;;11.90;3.47;;;;;;;;;;6116099;29;20249;-77
2021/04/08 14:44:59;;;;;;;6.80;3.38;;;;;;;;;;6110895;29;20083;-77
2021/04/08 14:48:00;;;;;;;27.13;4.22;;;;;;;;;;6110661;29;20079;-77
2021/04/08 14:51:02;;;;;;;174.60;14.25;;;;;;;;;;6107580;29;20055;-78
2021/04/08 14:54:03;;;;;;;11.13;3.00;;;;;;;;;;6114189;29;20378;-77
2021/04/08 14:57:05;;;;;;;25.95;4.35;;;;;;;;;;6115684;29;20071;-77
2021/04/08 15:00:08;;;;;;;8.00;2.38;;;;;;;;;;6104383;29;20048;-78
2021/04/08 15:03:09;;;;;;;13.32;2.83;;;;;;;;;;6111925;29;20110;-76
2021/04/08 15:06:10;;;;;;;18.00;3.08;;;;;;;;;;6114652;29;20067;-77
2021/04/08 15:09:11;;;;;;;21.95;3.40;;;;;;;;;;6111684;29;20132;-77
2021/04/08 15:12:14;;;;;;;41.50;4.75;;;;;;;;;;6111989;29;20052;-77
2021/04/08 15:15:17;;;;;;;24.33;3.95;;;;;;;;;;6111001;29;20072;-79
2021/04/08 15:18:18;;;;;;;20.40;2.95;;;;;;;;;;6109608;29;20064;-77
2021/04/08 15:21:19;;;;;;;23.90;4.15;;;;;;;;;;6116823;29;20063;-79
2021/04/08 15:24:20;;;;;;;19.05;3.20;;;;;;;;;;6116759;29;20060;-79
2021/04/08 15:27:21;;;;;;;17.90;2.67;;;;;;;;;;6120981;29;20083;-79
2021/04/08 15:30:25;;;;;;;19.58;3.20;;;;;;;;;;6113541;29;20059;-77
2021/04/08 15:33:26;;;;;;;10.85;3.00;;;;;;;;;;6112323;29;20078;-78
2021/04/08 15:36:27;;;;;;;6.13;2.35;;;;;;;;;;6109692;29;20055;-78
2021/04/08 15:39:28;;;;;;;6.88;2.00;;;;;;;;;;6109660;29;20059;-78
2021/04/08 15:42:30;;;;;;;9.88;2.47;;;;;;;;;;6111394;29;20071;-78
2021/04/08 15:45:32;;;;;;;10.57;2.38;;;;;;;;;;6113310;29;20063;-79
2021/04/08 15:48:33;;;;;;;74.95;6.18;;;;;;;;;;6111631;29;20048;-78
2021/04/08 15:51:34;;;;;;;7.60;1.92;;;;;;;;;;6110004;29;20048;-78
2021/04/08 15:54:35;;;;;;;13.25;1.98;;;;;;;;;;6114546;29;20147;-78
2021/04/08 15:57:39;;;;;;;11.15;2.17;;;;;;;;;;6111720;29;20471;-78
2021/04/08 16:00:41;;;;;;;7.82;2.10;;;;;;;;;;6112363;29;20071;-78
2021/04/08 16:03:44;;;;;;;11.05;1.92;;;;;;;;;;6119212;29;20056;-78
2021/04/08 16:06:45;;;;;;;15.10;2.37;;;;;;;;;;6117348;29;20047;-76
2021/04/08 16:09:46;;;;;;;5.28;1.20;;;;;;;;;;6111937;29;20096;-79
2021/04/08 16:12:47;;;;;;;5.00;1.52;;;;;;;;;;6113297;29;20511;-77
2021/04/08 16:15:49;;;;;;;7.65;1.60;;;;;;;;;;6119504;29;20518;-77
2021/04/08 16:18:51;;;;;;;6.95;1.60;;;;;;;;;;6124322;29;20481;-80
2021/04/08 16:21:52;;;;;;;6.45;2.28;;;;;;;;;;6116745;29;20071;-78
2021/04/08 16:24:53;;;;;;;6.03;1.70;;;;;;;;;;6121702;29;20135;-78
2021/04/08 16:27:55;;;;;;;7.60;1.70;;;;;;;;;;6115110;29;20079;-78
2021/04/08 16:30:57;;;;;;;6.72;1.85;;;;;;;;;;6125091;29;20126;-78
2021/04/08 16:33:58;;;;;;;8.57;1.98;;;;;;;;;;6120160;29;20239;-77
2021/04/08 16:37:00;;;;;;;13.52;2.17;;;;;;;;;;6115381;29;20071;-79
2021/04/08 16:40:01;;;;;;;8.68;1.80;;;;;;;;;;6111666;29;20063;-78
2021/04/08 16:43:02;;;;;;;4.90;1.73;;;;;;;;;;6120528;29;20044;-78
2021/04/08 16:46:05;;;;;;;34.03;3.38;;;;;;;;;;6111579;29;20070;-78
2021/04/08 16:49:06;;;;;;;5.97;1.60;;;;;;;;;;6116345;29;20107;-78
2021/04/08 16:52:08;;;;;;;6.97;1.65;;;;;;;;;;6111665;29;20075;-78
2021/04/08 16:55:11;;;;;;;10.05;1.42;;;;;;;;;;6113607;29;20151;-77
2021/04/08 16:58:12;;;;;;;4.93;1.70;;;;;;;;;;6108801;29;20715;-80
2021/04/08 17:01:14;;;;;;;8.30;2.10;;;;;;;;;;6119403;29;20047;-78
2021/04/08 17:04:15;;;;;;;6.20;2.15;;;;;;;;;;6111728;29;20063;-78
2021/04/08 17:07:16;;;;;;;6.10;2.10;;;;;;;;;;6120762;29;20048;-78
2021/04/08 17:10:18;;;;;;;5.32;1.90;;;;;;;;;;6120917;29;20071;-78
2021/04/08 17:13:19;;;;;;;6.78;1.60;;;;;;;;;;6117148;29;20052;-78
2021/04/08 17:16:21;;;;;;;12.27;1.80;;;;;;;;;;6121368;29;20051;-78
2021/04/08 17:19:23;;;;;;;10.05;1.70;;;;;;;;;;6117029;29;20134;-78
2021/04/08 17:22:24;;;;;;;10.82;2.50;;;;;;;;;;6121757;29;20048;-78
2021/04/08 17:25:25;;;;;;;15.98;2.00;;;;;;;;;;6117576;29;20487;-78
2021/04/08 17:28:28;;;;;;;11.18;1.40;;;;;;;;;;6112814;29;20040;-77
2021/04/08 17:31:30;;;;;;;7.38;1.42;;;;;;;;;;6114221;29;20067;-78
2021/04/08 17:34:31;;;;;;;4.30;1.23;;;;;;;;;;6109510;29;20083;-79
2021/04/08 17:37:33;;;;;;;4.20;1.30;;;;;;;;;;6095275;29;20511;-78
2021/04/08 17:40:34;;;;;;;6.15;1.00;;;;;;;;;;6097554;29;20052;-77
2021/04/08 17:43:35;;;;;;;4.85;1.60;;;;;;;;;;6098062;29;20100;-80
2021/04/08 17:46:40;;;;;;;4.03;1.40;;;;;;;;;;6089750;29;20127;-78
2021/04/08 17:49:42;;;;;;;7.07;1.23;;;;;;;;;;6089667;29;20104;-77
2021/04/08 17:52:43;;;;;;;5.65;1.17;;;;;;;;;;6087670;29;20053;-78
2021/04/08 17:55:45;;;;;;;4.53;1.10;;;;;;;;;;6089921;29;20044;-75
2021/04/08 17:58:47;;;;;;;3.28;1.30;;;;;;;;;;6099890;29;20127;-73
2021/04/08 18:01:49;;;;;;;8.13;1.10;;;;;;;;;;6092343;28;20074;-74
2021/04/08 18:04:50;;;;;;;7.65;1.30;;;;;;;;;;6093112;29;20072;-74
2021/04/08 18:07:51;;;;;;;7.50;1.52;;;;;;;;;;6092522;29;20127;-77
2021/04/08 18:10:52;;;;;;;1.95;0.75;;;;;;;;;;6113548;29;20419;-73